sensor_id;sensor_type;location;lat;lon;timestamp;P1;durP1;ratioP1;P2;durP2;ratioP2
69334;SDS011;56477;52.742;15.242;2023-06-26T00:01:50;7.22;;;4.80;;
69334;SDS011;56477;52.742;15.242;2023-06-26T00:04:16;7.80;;;4.50;;
69334;SDS011;56477;52.742;15.242;2023-06-26T00:06:42;7.78;;;4.97;;
69334;SDS011;56477;52.742;15.242;2023-06-26T00:09:08;8.40;;;4.97;;
69334;SDS011;56477;52.742;15.242;2023-06-26T00:11:34;10.90;;;6.20;;
69334;SDS011;56477;52.742;15.242;2023-06-26T00:14:00;12.07;;;6.90;;
69334;SDS011;56477;52.742;15.242;2023-06-26T00:16:27;11.63;;;6.95;;
69334;SDS011;56477;52.742;15.242;2023-06-26T00:18:53;9.13;;;5.93;;
69334;SDS011;56477;52.742;15.242;2023-06-26T00:21:19;9.97;;;6.20;;
69334;SDS011;56477;52.742;15.242;2023-06-26T00:23:45;10.63;;;6.40;;
69334;SDS011;56477;52.742;15.242;2023-06-26T00:26:11;10.65;;;6.40;;
69334;SDS011;56477;52.742;15.242;2023-06-26T00:28:37;10.65;;;6.68;;
69334;SDS011;56477;52.742;15.242;2023-06-26T00:31:04;10.90;;;6.90;;
69334;SDS011;56477;52.742;15.242;2023-06-26T00:33:29;10.75;;;6.63;;
69334;SDS011;56477;52.742;15.242;2023-06-26T00:35:55;11.13;;;6.68;;
69334;SDS011;56477;52.742;15.242;2023-06-26T00:38:21;10.07;;;6.10;;
69334;SDS011;56477;52.742;15.242;2023-06-26T00:40:47;14.13;;;8.10;;
69334;SDS011;56477;52.742;15.242;2023-06-26T00:43:13;11.13;;;7.72;;
69334;SDS011;56477;52.742;15.242;2023-06-26T00:45:39;12.85;;;7.75;;
69334;SDS011;56477;52.742;15.242;2023-06-26T00:48:05;15.03;;;8.23;;
69334;SDS011;56477;52.742;15.242;2023-06-26T00:50:31;9.93;;;7.65;;
69334;SDS011;56477;52.742;15.242;2023-06-26T00:52:57;12.05;;;7.47;;
69334;SDS011;56477;52.742;15.242;2023-06-26T00:55:26;12.10;;;7.75;;
69334;SDS011;56477;52.742;15.242;2023-06-26T00:57:53;10.63;;;7.50;;
69334;SDS011;56477;52.742;15.242;2023-06-26T01:00:20;10.82;;;7.65;;
69334;SDS011;56477;52.742;15.242;2023-06-26T01:02:46;12.80;;;7.85;;
69334;SDS011;56477;52.742;15.242;2023-06-26T01:05:12;16.65;;;8.60;;
69334;SDS011;56477;52.742;15.242;2023-06-26T01:07:47;13.27;;;8.27;;
69334;SDS011;56477;52.742;15.242;2023-06-26T01:10:14;13.10;;;7.83;;
69334;SDS011;56477;52.742;15.242;2023-06-26T01:12:40;12.57;;;8.43;;
69334;SDS011;56477;52.742;15.242;2023-06-26T01:15:06;12.60;;;8.00;;
69334;SDS011;56477;52.742;15.242;2023-06-26T01:17:33;13.85;;;8.50;;
69334;SDS011;56477;52.742;15.242;2023-06-26T01:20:01;12.30;;;8.60;;
69334;SDS011;56477;52.742;15.242;2023-06-26T01:28:06;12.50;;;8.57;;
69334;SDS011;56477;52.742;15.242;2023-06-26T01:30:34;11.45;;;7.90;;
69334;SDS011;56477;52.742;15.242;2023-06-26T01:33:03;12.40;;;7.90;;
69334;SDS011;56477;52.742;15.242;2023-06-26T01:35:30;11.67;;;7.60;;
69334;SDS011;56477;52.742;15.242;2023-06-26T01:38:12;13.30;;;8.20;;
69334;SDS011;56477;52.742;15.242;2023-06-26T01:40:38;12.48;;;8.18;;
69334;SDS011;56477;52.742;15.242;2023-06-26T01:43:05;11.27;;;8.13;;
69334;SDS011;56477;52.742;15.242;2023-06-26T01:45:35;11.33;;;7.87;;
69334;SDS011;56477;52.742;15.242;2023-06-26T01:48:02;11.32;;;7.78;;
69334;SDS011;56477;52.742;15.242;2023-06-26T01:50:32;10.85;;;8.15;;
69334;SDS011;56477;52.742;15.242;2023-06-26T01:53:04;13.70;;;8.23;;
69334;SDS011;56477;52.742;15.242;2023-06-26T01:55:46;10.73;;;8.38;;
69334;SDS011;56477;52.742;15.242;2023-06-26T01:58:15;11.33;;;8.10;;
69334;SDS011;56477;52.742;15.242;2023-06-26T02:00:46;14.10;;;8.23;;
69334;SDS011;56477;52.742;15.242;2023-06-26T02:03:12;11.77;;;8.20;;
69334;SDS011;56477;52.742;15.242;2023-06-26T02:05:38;11.95;;;7.68;;
69334;SDS011;56477;52.742;15.242;2023-06-26T02:08:04;12.10;;;8.47;;
69334;SDS011;56477;52.742;15.242;2023-06-26T02:10:31;12.70;;;8.27;;
69334;SDS011;56477;52.742;15.242;2023-06-26T02:12:57;11.75;;;8.10;;
69334;SDS011;56477;52.742;15.242;2023-06-26T02:15:23;12.83;;;7.70;;
69334;SDS011;56477;52.742;15.242;2023-06-26T02:17:48;12.88;;;7.57;;
69334;SDS011;56477;52.742;15.242;2023-06-26T02:20:15;11.82;;;8.18;;
69334;SDS011;56477;52.742;15.242;2023-06-26T02:22:41;13.38;;;8.45;;
69334;SDS011;56477;52.742;15.242;2023-06-26T02:25:08;10.30;;;7.60;;
69334;SDS011;56477;52.742;15.242;2023-06-26T02:27:35;11.05;;;7.53;;
69334;SDS011;56477;52.742;15.242;2023-06-26T02:30:01;12.68;;;7.75;;
69334;SDS011;56477;52.742;15.242;2023-06-26T02:32:27;11.63;;;7.45;;
69334;SDS011;56477;52.742;15.242;2023-06-26T02:34:53;13.13;;;8.20;;
69334;SDS011;56477;52.742;15.242;2023-06-26T02:37:19;11.67;;;7.90;;
69334;SDS011;56477;52.742;15.242;2023-06-26T02:39:45;12.93;;;8.23;;
69334;SDS011;56477;52.742;15.242;2023-06-26T02:42:11;13.30;;;8.05;;
69334;SDS011;56477;52.742;15.242;2023-06-26T02:44:37;10.53;;;7.60;;
69334;SDS011;56477;52.742;15.242;2023-06-26T02:47:03;9.95;;;7.47;;
69334;SDS011;56477;52.742;15.242;2023-06-26T02:49:29;12.30;;;7.72;;
69334;SDS011;56477;52.742;15.242;2023-06-26T02:51:55;10.43;;;7.23;;
69334;SDS011;56477;52.742;15.242;2023-06-26T02:54:21;11.05;;;7.28;;
69334;SDS011;56477;52.742;15.242;2023-06-26T02:56:47;15.07;;;8.43;;
69334;SDS011;56477;52.742;15.242;2023-06-26T02:59:13;10.80;;;7.47;;
69334;SDS011;56477;52.742;15.242;2023-06-26T03:01:39;11.95;;;7.53;;
69334;SDS011;56477;52.742;15.242;2023-06-26T03:04:05;12.00;;;7.95;;
69334;SDS011;56477;52.742;15.242;2023-06-26T03:06:31;11.57;;;7.22;;
69334;SDS011;56477;52.742;15.242;2023-06-26T03:08:57;11.57;;;7.43;;
69334;SDS011;56477;52.742;15.242;2023-06-26T03:11:23;10.02;;;7.22;;
69334;SDS011;56477;52.742;15.242;2023-06-26T03:13:49;11.98;;;6.68;;
69334;SDS011;56477;52.742;15.242;2023-06-26T03:16:15;8.80;;;6.20;;
69334;SDS011;56477;52.742;15.242;2023-06-26T03:18:41;14.65;;;7.22;;
69334;SDS011;56477;52.742;15.242;2023-06-26T03:21:06;11.63;;;6.65;;
69334;SDS011;56477;52.742;15.242;2023-06-26T03:23:34;11.15;;;6.35;;
69334;SDS011;56477;52.742;15.242;2023-06-26T03:26:00;10.10;;;6.30;;
69334;SDS011;56477;52.742;15.242;2023-06-26T03:28:26;11.48;;;6.18;;
69334;SDS011;56477;52.742;15.242;2023-06-26T03:30:52;9.80;;;6.70;;
69334;SDS011;56477;52.742;15.242;2023-06-26T03:33:18;9.82;;;6.20;;
69334;SDS011;56477;52.742;15.242;2023-06-26T03:35:44;12.70;;;6.00;;
69334;SDS011;56477;52.742;15.242;2023-06-26T03:38:10;11.43;;;6.57;;
69334;SDS011;56477;52.742;15.242;2023-06-26T03:40:36;11.10;;;6.40;;
69334;SDS011;56477;52.742;15.242;2023-06-26T03:43:02;9.80;;;6.40;;
69334;SDS011;56477;52.742;15.242;2023-06-26T03:45:28;11.82;;;6.65;;
69334;SDS011;56477;52.742;15.242;2023-06-26T03:47:54;13.95;;;7.60;;
69334;SDS011;56477;52.742;15.242;2023-06-26T03:50:19;10.77;;;7.23;;
69334;SDS011;56477;52.742;15.242;2023-06-26T03:52:45;10.73;;;6.85;;
69334;SDS011;56477;52.742;15.242;2023-06-26T03:55:11;10.90;;;6.53;;
69334;SDS011;56477;52.742;15.242;2023-06-26T03:57:37;10.00;;;6.35;;
69334;SDS011;56477;52.742;15.242;2023-06-26T04:00:03;10.95;;;6.10;;
69334;SDS011;56477;52.742;15.242;2023-06-26T04:02:38;11.07;;;6.03;;
69334;SDS011;56477;52.742;15.242;2023-06-26T04:05:04;11.57;;;5.97;;
69334;SDS011;56477;52.742;15.242;2023-06-26T04:07:30;11.25;;;5.72;;
69334;SDS011;56477;52.742;15.242;2023-06-26T04:09:57;10.13;;;5.75;;
69334;SDS011;56477;52.742;15.242;2023-06-26T04:12:23;9.10;;;5.45;;
69334;SDS011;56477;52.742;15.242;2023-06-26T04:14:49;11.43;;;5.70;;
69334;SDS011;56477;52.742;15.242;2023-06-26T04:17:15;9.03;;;5.53;;
69334;SDS011;56477;52.742;15.242;2023-06-26T04:19:41;8.02;;;5.32;;
69334;SDS011;56477;52.742;15.242;2023-06-26T04:22:07;8.45;;;5.30;;
69334;SDS011;56477;52.742;15.242;2023-06-26T04:24:32;8.13;;;5.23;;
69334;SDS011;56477;52.742;15.242;2023-06-26T04:26:58;7.63;;;4.82;;
69334;SDS011;56477;52.742;15.242;2023-06-26T04:29:27;8.40;;;4.88;;
69334;SDS011;56477;52.742;15.242;2023-06-26T04:31:53;12.60;;;5.20;;
69334;SDS011;56477;52.742;15.242;2023-06-26T04:34:29;11.35;;;5.10;;
69334;SDS011;56477;52.742;15.242;2023-06-26T04:36:58;11.10;;;5.13;;
69334;SDS011;56477;52.742;15.242;2023-06-26T04:39:24;7.93;;;5.32;;
69334;SDS011;56477;52.742;15.242;2023-06-26T04:41:50;7.37;;;4.90;;
69334;SDS011;56477;52.742;15.242;2023-06-26T04:44:15;8.68;;;5.22;;
69334;SDS011;56477;52.742;15.242;2023-06-26T04:46:41;11.32;;;5.05;;
69334;SDS011;56477;52.742;15.242;2023-06-26T04:49:08;7.87;;;5.00;;
69334;SDS011;56477;52.742;15.242;2023-06-26T04:51:34;8.00;;;5.55;;
69334;SDS011;56477;52.742;15.242;2023-06-26T04:54:09;9.52;;;5.20;;
69334;SDS011;56477;52.742;15.242;2023-06-26T04:56:36;8.45;;;5.07;;
69334;SDS011;56477;52.742;15.242;2023-06-26T04:59:02;9.18;;;5.78;;
69334;SDS011;56477;52.742;15.242;2023-06-26T05:01:29;11.13;;;5.83;;
69334;SDS011;56477;52.742;15.242;2023-06-26T05:03:55;13.05;;;5.30;;
69334;SDS011;56477;52.742;15.242;2023-06-26T05:06:22;8.70;;;5.50;;
69334;SDS011;56477;52.742;15.242;2023-06-26T05:08:48;8.65;;;5.70;;
69334;SDS011;56477;52.742;15.242;2023-06-26T05:11:14;10.18;;;5.53;;
69334;SDS011;56477;52.742;15.242;2023-06-26T05:13:40;8.93;;;5.87;;
69334;SDS011;56477;52.742;15.242;2023-06-26T05:16:07;9.10;;;5.57;;
69334;SDS011;56477;52.742;15.242;2023-06-26T05:18:34;10.73;;;5.78;;
69334;SDS011;56477;52.742;15.242;2023-06-26T05:21:01;9.07;;;5.97;;
69334;SDS011;56477;52.742;15.242;2023-06-26T05:23:30;8.37;;;5.30;;
69334;SDS011;56477;52.742;15.242;2023-06-26T05:25:57;11.13;;;6.40;;
69334;SDS011;56477;52.742;15.242;2023-06-26T05:28:23;9.45;;;6.18;;
69334;SDS011;56477;52.742;15.242;2023-06-26T05:30:50;10.68;;;6.40;;
69334;SDS011;56477;52.742;15.242;2023-06-26T05:33:17;9.75;;;6.35;;
69334;SDS011;56477;52.742;15.242;2023-06-26T05:35:45;10.30;;;5.70;;
69334;SDS011;56477;52.742;15.242;2023-06-26T05:38:12;10.57;;;6.10;;
69334;SDS011;56477;52.742;15.242;2023-06-26T05:40:39;11.30;;;6.57;;
69334;SDS011;56477;52.742;15.242;2023-06-26T05:43:06;9.82;;;6.65;;
69334;SDS011;56477;52.742;15.242;2023-06-26T05:45:32;10.38;;;6.85;;
69334;SDS011;56477;52.742;15.242;2023-06-26T05:47:58;13.00;;;6.67;;
69334;SDS011;56477;52.742;15.242;2023-06-26T05:50:25;10.35;;;6.60;;
69334;SDS011;56477;52.742;15.242;2023-06-26T05:52:51;10.93;;;6.50;;
69334;SDS011;56477;52.742;15.242;2023-06-26T05:55:19;13.25;;;7.55;;
69334;SDS011;56477;52.742;15.242;2023-06-26T05:57:46;10.77;;;6.07;;
69334;SDS011;56477;52.742;15.242;2023-06-26T06:00:13;10.33;;;6.67;;
69334;SDS011;56477;52.742;15.242;2023-06-26T06:02:39;9.23;;;6.60;;
69334;SDS011;56477;52.742;15.242;2023-06-26T06:05:07;11.95;;;6.57;;
69334;SDS011;56477;52.742;15.242;2023-06-26T06:07:33;12.05;;;6.70;;
69334;SDS011;56477;52.742;15.242;2023-06-26T06:10:00;9.73;;;7.10;;
69334;SDS011;56477;52.742;15.242;2023-06-26T06:12:28;10.00;;;6.45;;
69334;SDS011;56477;52.742;15.242;2023-06-26T06:14:55;12.93;;;7.83;;
69334;SDS011;56477;52.742;15.242;2023-06-26T06:17:21;14.17;;;8.57;;
69334;SDS011;56477;52.742;15.242;2023-06-26T06:19:47;12.75;;;7.30;;
69334;SDS011;56477;52.742;15.242;2023-06-26T06:22:14;16.33;;;10.68;;
69334;SDS011;56477;52.742;15.242;2023-06-26T06:24:42;14.95;;;10.50;;
69334;SDS011;56477;52.742;15.242;2023-06-26T06:27:08;17.77;;;11.40;;
69334;SDS011;56477;52.742;15.242;2023-06-26T06:29:33;14.73;;;9.52;;
69334;SDS011;56477;52.742;15.242;2023-06-26T06:31:59;12.40;;;9.45;;
69334;SDS011;56477;52.742;15.242;2023-06-26T06:34:25;13.07;;;7.87;;
69334;SDS011;56477;52.742;15.242;2023-06-26T06:36:51;12.82;;;7.50;;
69334;SDS011;56477;52.742;15.242;2023-06-26T06:39:17;12.17;;;8.27;;
69334;SDS011;56477;52.742;15.242;2023-06-26T06:41:43;10.37;;;7.73;;
69334;SDS011;56477;52.742;15.242;2023-06-26T06:44:09;11.70;;;7.40;;
69334;SDS011;56477;52.742;15.242;2023-06-26T06:46:35;12.32;;;8.43;;
69334;SDS011;56477;52.742;15.242;2023-06-26T06:49:00;12.93;;;9.27;;
69334;SDS011;56477;52.742;15.242;2023-06-26T06:51:27;14.88;;;10.18;;
69334;SDS011;56477;52.742;15.242;2023-06-26T06:53:53;15.82;;;9.85;;
69334;SDS011;56477;52.742;15.242;2023-06-26T06:56:19;12.77;;;8.50;;
69334;SDS011;56477;52.742;15.242;2023-06-26T06:58:45;11.33;;;7.50;;
69334;SDS011;56477;52.742;15.242;2023-06-26T07:01:12;11.02;;;7.32;;
69334;SDS011;56477;52.742;15.242;2023-06-26T07:03:39;11.90;;;7.78;;
69334;SDS011;56477;52.742;15.242;2023-06-26T07:06:05;11.00;;;7.43;;
69334;SDS011;56477;52.742;15.242;2023-06-26T07:08:31;12.30;;;8.70;;
69334;SDS011;56477;52.742;15.242;2023-06-26T07:10:57;16.25;;;11.70;;
69334;SDS011;56477;52.742;15.242;2023-06-26T07:13:23;13.52;;;9.50;;
69334;SDS011;56477;52.742;15.242;2023-06-26T07:15:49;9.98;;;7.72;;
69334;SDS011;56477;52.742;15.242;2023-06-26T07:18:15;10.27;;;6.83;;
69334;SDS011;56477;52.742;15.242;2023-06-26T07:20:41;8.68;;;6.53;;
69334;SDS011;56477;52.742;15.242;2023-06-26T07:23:07;8.88;;;6.32;;
69334;SDS011;56477;52.742;15.242;2023-06-26T07:25:34;10.77;;;8.13;;
69334;SDS011;56477;52.742;15.242;2023-06-26T07:28:00;9.40;;;6.93;;
69334;SDS011;56477;52.742;15.242;2023-06-26T07:30:26;14.07;;;7.82;;
69334;SDS011;56477;52.742;15.242;2023-06-26T07:32:52;12.60;;;7.90;;
69334;SDS011;56477;52.742;15.242;2023-06-26T07:35:18;9.90;;;7.47;;
69334;SDS011;56477;52.742;15.242;2023-06-26T07:37:44;10.03;;;6.83;;
69334;SDS011;56477;52.742;15.242;2023-06-26T07:40:10;12.75;;;8.23;;
69334;SDS011;56477;52.742;15.242;2023-06-26T07:42:36;9.32;;;7.40;;
69334;SDS011;56477;52.742;15.242;2023-06-26T07:45:02;11.18;;;7.90;;
69334;SDS011;56477;52.742;15.242;2023-06-26T07:47:35;9.93;;;7.00;;
69334;SDS011;56477;52.742;15.242;2023-06-26T07:50:02;9.33;;;6.60;;
69334;SDS011;56477;52.742;15.242;2023-06-26T07:52:28;8.00;;;6.00;;
69334;SDS011;56477;52.742;15.242;2023-06-26T07:54:56;8.82;;;6.13;;
69334;SDS011;56477;52.742;15.242;2023-06-26T07:57:22;8.35;;;6.25;;
69334;SDS011;56477;52.742;15.242;2023-06-26T07:59:48;8.32;;;6.38;;
69334;SDS011;56477;52.742;15.242;2023-06-26T08:02:14;7.95;;;6.57;;
69334;SDS011;56477;52.742;15.242;2023-06-26T08:04:40;8.30;;;6.40;;
69334;SDS011;56477;52.742;15.242;2023-06-26T08:07:06;7.93;;;5.97;;
69334;SDS011;56477;52.742;15.242;2023-06-26T08:09:32;8.30;;;6.47;;
69334;SDS011;56477;52.742;15.242;2023-06-26T08:11:58;8.90;;;6.78;;
69334;SDS011;56477;52.742;15.242;2023-06-26T08:14:24;8.23;;;7.10;;
69334;SDS011;56477;52.742;15.242;2023-06-26T08:16:50;7.63;;;6.37;;
69334;SDS011;56477;52.742;15.242;2023-06-26T08:19:16;9.73;;;6.78;;
69334;SDS011;56477;52.742;15.242;2023-06-26T08:21:43;8.95;;;6.93;;
69334;SDS011;56477;52.742;15.242;2023-06-26T08:24:09;8.70;;;7.00;;
69334;SDS011;56477;52.742;15.242;2023-06-26T08:26:35;9.13;;;6.47;;
69334;SDS011;56477;52.742;15.242;2023-06-26T08:29:01;7.68;;;6.65;;
69334;SDS011;56477;52.742;15.242;2023-06-26T08:31:34;7.93;;;5.50;;
69334;SDS011;56477;52.742;15.242;2023-06-26T08:34:00;6.93;;;5.67;;
69334;SDS011;56477;52.742;15.242;2023-06-26T08:36:27;6.20;;;4.47;;
69334;SDS011;56477;52.742;15.242;2023-06-26T08:38:52;8.43;;;6.30;;
69334;SDS011;56477;52.742;15.242;2023-06-26T08:41:18;8.10;;;6.13;;
69334;SDS011;56477;52.742;15.242;2023-06-26T08:43:44;7.63;;;5.53;;
69334;SDS011;56477;52.742;15.242;2023-06-26T08:46:11;8.65;;;6.13;;
69334;SDS011;56477;52.742;15.242;2023-06-26T08:48:36;7.38;;;6.30;;
69334;SDS011;56477;52.742;15.242;2023-06-26T08:51:05;7.93;;;6.65;;
69334;SDS011;56477;52.742;15.242;2023-06-26T08:56:22;9.30;;;7.53;;
69334;SDS011;56477;52.742;15.242;2023-06-26T08:58:51;7.40;;;6.53;;
69334;SDS011;56477;52.742;15.242;2023-06-26T09:01:18;7.67;;;6.77;;
69334;SDS011;56477;52.742;15.242;2023-06-26T09:03:44;6.90;;;6.03;;
69334;SDS011;56477;52.742;15.242;2023-06-26T09:06:10;7.15;;;5.60;;
69334;SDS011;56477;52.742;15.242;2023-06-26T09:08:36;9.18;;;6.25;;
69334;SDS011;56477;52.742;15.242;2023-06-26T09:11:02;7.43;;;6.53;;
69334;SDS011;56477;52.742;15.242;2023-06-26T09:13:28;9.13;;;6.97;;
69334;SDS011;56477;52.742;15.242;2023-06-26T09:15:55;8.38;;;7.05;;
69334;SDS011;56477;52.742;15.242;2023-06-26T09:18:21;7.43;;;6.00;;
69334;SDS011;56477;52.742;15.242;2023-06-26T09:20:48;6.20;;;5.18;;
69334;SDS011;56477;52.742;15.242;2023-06-26T09:23:14;7.72;;;6.05;;
69334;SDS011;56477;52.742;15.242;2023-06-26T09:25:40;8.45;;;5.93;;
69334;SDS011;56477;52.742;15.242;2023-06-26T09:28:06;8.13;;;5.97;;
69334;SDS011;56477;52.742;15.242;2023-06-26T09:30:34;7.10;;;6.10;;
69334;SDS011;56477;52.742;15.242;2023-06-26T09:33:16;7.82;;;6.40;;
69334;SDS011;56477;52.742;15.242;2023-06-26T09:35:44;8.00;;;6.03;;
69334;SDS011;56477;52.742;15.242;2023-06-26T09:38:14;8.88;;;6.20;;
69334;SDS011;56477;52.742;15.242;2023-06-26T09:40:44;8.32;;;6.57;;
69334;SDS011;56477;52.742;15.242;2023-06-26T09:43:12;7.07;;;5.80;;
69334;SDS011;56477;52.742;15.242;2023-06-26T09:45:39;7.27;;;6.17;;
69334;SDS011;56477;52.742;15.242;2023-06-26T09:48:05;7.43;;;6.03;;
69334;SDS011;56477;52.742;15.242;2023-06-26T09:50:34;8.10;;;6.10;;
69334;SDS011;56477;52.742;15.242;2023-06-26T09:53:12;6.72;;;5.60;;
69334;SDS011;56477;52.742;15.242;2023-06-26T09:55:39;7.47;;;5.80;;
69334;SDS011;56477;52.742;15.242;2023-06-26T09:58:12;6.45;;;5.70;;
69334;SDS011;56477;52.742;15.242;2023-06-26T10:00:41;7.95;;;5.45;;
69334;SDS011;56477;52.742;15.242;2023-06-26T10:03:08;6.68;;;5.93;;
69334;SDS011;56477;52.742;15.242;2023-06-26T10:05:34;9.77;;;5.50;;
69334;SDS011;56477;52.742;15.242;2023-06-26T10:08:00;7.40;;;5.23;;
69334;SDS011;56477;52.742;15.242;2023-06-26T10:10:28;7.82;;;5.80;;
69334;SDS011;56477;52.742;15.242;2023-06-26T10:13:00;8.50;;;5.78;;
69334;SDS011;56477;52.742;15.242;2023-06-26T10:15:34;6.85;;;5.50;;
69334;SDS011;56477;52.742;15.242;2023-06-26T10:18:02;8.07;;;5.80;;
69334;SDS011;56477;52.742;15.242;2023-06-26T10:20:28;7.65;;;6.15;;
69334;SDS011;56477;52.742;15.242;2023-06-26T10:22:55;6.97;;;5.60;;
69334;SDS011;56477;52.742;15.242;2023-06-26T10:25:26;7.10;;;5.83;;
69334;SDS011;56477;52.742;15.242;2023-06-26T10:27:56;7.43;;;5.72;;
69334;SDS011;56477;52.742;15.242;2023-06-26T10:30:26;7.30;;;5.75;;
69334;SDS011;56477;52.742;15.242;2023-06-26T10:32:54;8.18;;;5.88;;
69334;SDS011;56477;52.742;15.242;2023-06-26T10:35:21;7.75;;;5.75;;
69334;SDS011;56477;52.742;15.242;2023-06-26T10:37:49;8.05;;;5.78;;
69334;SDS011;56477;52.742;15.242;2023-06-26T10:40:25;7.80;;;5.93;;
69334;SDS011;56477;52.742;15.242;2023-06-26T10:42:51;7.28;;;5.82;;
69334;SDS011;56477;52.742;15.242;2023-06-26T10:45:32;8.33;;;6.33;;
69334;SDS011;56477;52.742;15.242;2023-06-26T10:48:09;9.07;;;6.60;;
69334;SDS011;56477;52.742;15.242;2023-06-26T10:50:35;8.43;;;6.88;;
69334;SDS011;56477;52.742;15.242;2023-06-26T10:55:43;8.95;;;6.40;;
69334;SDS011;56477;52.742;15.242;2023-06-26T10:58:32;10.50;;;6.82;;
69334;SDS011;56477;52.742;15.242;2023-06-26T11:03:37;6.70;;;5.97;;
69334;SDS011;56477;52.742;15.242;2023-06-26T11:08:45;7.15;;;5.65;;
69334;SDS011;56477;52.742;15.242;2023-06-26T11:11:13;7.33;;;5.10;;
69334;SDS011;56477;52.742;15.242;2023-06-26T11:13:39;8.73;;;6.80;;
69334;SDS011;56477;52.742;15.242;2023-06-26T11:16:05;7.15;;;5.90;;
69334;SDS011;56477;52.742;15.242;2023-06-26T11:18:31;8.40;;;6.05;;
69334;SDS011;56477;52.742;15.242;2023-06-26T11:21:11;6.10;;;5.32;;
69334;SDS011;56477;52.742;15.242;2023-06-26T11:23:39;6.75;;;5.15;;
69334;SDS011;56477;52.742;15.242;2023-06-26T11:26:13;6.63;;;5.63;;
69334;SDS011;56477;52.742;15.242;2023-06-26T11:28:46;8.20;;;5.70;;
69334;SDS011;56477;52.742;15.242;2023-06-26T11:31:32;6.93;;;5.03;;
69334;SDS011;56477;52.742;15.242;2023-06-26T11:34:04;6.32;;;5.30;;
69334;SDS011;56477;52.742;15.242;2023-06-26T11:36:33;6.22;;;5.50;;
69334;SDS011;56477;52.742;15.242;2023-06-26T11:39:02;8.27;;;6.00;;
69334;SDS011;56477;52.742;15.242;2023-06-26T11:41:32;7.90;;;6.40;;
69334;SDS011;56477;52.742;15.242;2023-06-26T11:44:06;8.27;;;6.05;;
69334;SDS011;56477;52.742;15.242;2023-06-26T11:46:33;6.63;;;5.47;;
69334;SDS011;56477;52.742;15.242;2023-06-26T11:49:02;6.97;;;5.28;;
69334;SDS011;56477;52.742;15.242;2023-06-26T11:51:30;6.53;;;4.70;;
69334;SDS011;56477;52.742;15.242;2023-06-26T11:53:55;6.27;;;5.47;;
69334;SDS011;56477;52.742;15.242;2023-06-26T11:56:21;6.35;;;5.18;;
69334;SDS011;56477;52.742;15.242;2023-06-26T12:04:16;6.75;;;5.65;;
69334;SDS011;56477;52.742;15.242;2023-06-26T12:06:45;10.20;;;5.40;;
69334;SDS011;56477;52.742;15.242;2023-06-26T12:09:13;6.43;;;5.53;;
69334;SDS011;56477;52.742;15.242;2023-06-26T12:11:40;6.50;;;5.10;;
69334;SDS011;56477;52.742;15.242;2023-06-26T12:14:08;5.95;;;4.95;;
69334;SDS011;56477;52.742;15.242;2023-06-26T12:16:35;5.45;;;4.85;;
69334;SDS011;56477;52.742;15.242;2023-06-26T12:19:02;5.95;;;4.97;;
69334;SDS011;56477;52.742;15.242;2023-06-26T12:23:59;6.60;;;5.00;;
69334;SDS011;56477;52.742;15.242;2023-06-26T12:26:26;7.00;;;5.97;;
69334;SDS011;56477;52.742;15.242;2023-06-26T12:29:03;6.13;;;5.33;;
69334;SDS011;56477;52.742;15.242;2023-06-26T12:31:30;6.97;;;5.60;;
69334;SDS011;56477;52.742;15.242;2023-06-26T12:33:57;6.43;;;5.28;;
69334;SDS011;56477;52.742;15.242;2023-06-26T12:36:23;6.63;;;5.25;;
69334;SDS011;56477;52.742;15.242;2023-06-26T12:38:49;6.07;;;5.28;;
69334;SDS011;56477;52.742;15.242;2023-06-26T12:41:15;6.22;;;5.43;;
69334;SDS011;56477;52.742;15.242;2023-06-26T12:43:41;6.93;;;5.13;;
69334;SDS011;56477;52.742;15.242;2023-06-26T12:46:08;6.05;;;5.45;;
69334;SDS011;56477;52.742;15.242;2023-06-26T12:48:40;5.60;;;5.00;;
69334;SDS011;56477;52.742;15.242;2023-06-26T12:51:12;6.90;;;5.15;;
69334;SDS011;56477;52.742;15.242;2023-06-26T12:53:40;6.70;;;5.50;;
69334;SDS011;56477;52.742;15.242;2023-06-26T12:56:06;7.57;;;5.40;;
69334;SDS011;56477;52.742;15.242;2023-06-26T12:58:33;6.57;;;5.07;;
69334;SDS011;56477;52.742;15.242;2023-06-26T13:01:02;7.65;;;5.22;;
69334;SDS011;56477;52.742;15.242;2023-06-26T13:03:31;6.90;;;5.03;;
69334;SDS011;56477;52.742;15.242;2023-06-26T13:05:57;6.15;;;4.90;;
69334;SDS011;56477;52.742;15.242;2023-06-26T13:08:23;5.95;;;4.55;;
69334;SDS011;56477;52.742;15.242;2023-06-26T13:10:49;6.43;;;5.40;;
69334;SDS011;56477;52.742;15.242;2023-06-26T13:13:15;5.85;;;5.10;;
69334;SDS011;56477;52.742;15.242;2023-06-26T13:15:41;7.22;;;5.18;;
69334;SDS011;56477;52.742;15.242;2023-06-26T13:18:07;6.47;;;4.80;;
69334;SDS011;56477;52.742;15.242;2023-06-26T13:20:33;6.83;;;5.77;;
69334;SDS011;56477;52.742;15.242;2023-06-26T13:22:58;6.22;;;5.03;;
69334;SDS011;56477;52.742;15.242;2023-06-26T13:25:24;6.03;;;5.10;;
69334;SDS011;56477;52.742;15.242;2023-06-26T13:27:50;8.67;;;6.03;;
69334;SDS011;56477;52.742;15.242;2023-06-26T13:30:16;7.75;;;5.45;;
69334;SDS011;56477;52.742;15.242;2023-06-26T13:32:42;7.03;;;5.68;;
69334;SDS011;56477;52.742;15.242;2023-06-26T13:35:09;5.45;;;4.60;;
69334;SDS011;56477;52.742;15.242;2023-06-26T13:37:35;5.57;;;4.85;;
69334;SDS011;56477;52.742;15.242;2023-06-26T13:40:02;8.70;;;5.10;;
69334;SDS011;56477;52.742;15.242;2023-06-26T13:42:28;6.53;;;5.20;;
69334;SDS011;56477;52.742;15.242;2023-06-26T13:44:55;7.15;;;5.40;;
69334;SDS011;56477;52.742;15.242;2023-06-26T13:47:20;6.40;;;5.15;;
69334;SDS011;56477;52.742;15.242;2023-06-26T13:49:47;5.60;;;4.90;;
69334;SDS011;56477;52.742;15.242;2023-06-26T13:52:13;6.10;;;5.10;;
69334;SDS011;56477;52.742;15.242;2023-06-26T13:54:39;6.40;;;5.20;;
69334;SDS011;56477;52.742;15.242;2023-06-26T13:57:05;6.00;;;4.23;;
69334;SDS011;56477;52.742;15.242;2023-06-26T13:59:33;6.05;;;4.88;;
69334;SDS011;56477;52.742;15.242;2023-06-26T14:01:59;5.82;;;4.75;;
69334;SDS011;56477;52.742;15.242;2023-06-26T14:04:25;6.30;;;4.70;;
69334;SDS011;56477;52.742;15.242;2023-06-26T14:06:52;7.70;;;5.13;;
69334;SDS011;56477;52.742;15.242;2023-06-26T14:09:18;6.95;;;5.03;;
69334;SDS011;56477;52.742;15.242;2023-06-26T14:11:44;7.72;;;5.38;;
69334;SDS011;56477;52.742;15.242;2023-06-26T14:14:10;5.50;;;4.20;;
69334;SDS011;56477;52.742;15.242;2023-06-26T14:16:36;6.13;;;4.93;;
69334;SDS011;56477;52.742;15.242;2023-06-26T14:19:02;6.28;;;4.60;;
69334;SDS011;56477;52.742;15.242;2023-06-26T14:21:28;5.95;;;4.78;;
69334;SDS011;56477;52.742;15.242;2023-06-26T14:23:54;6.03;;;5.07;;
69334;SDS011;56477;52.742;15.242;2023-06-26T14:26:20;7.07;;;5.60;;
69334;SDS011;56477;52.742;15.242;2023-06-26T14:28:46;6.03;;;5.10;;
69334;SDS011;56477;52.742;15.242;2023-06-26T14:31:12;6.20;;;5.10;;
69334;SDS011;56477;52.742;15.242;2023-06-26T14:33:39;7.78;;;5.03;;
69334;SDS011;56477;52.742;15.242;2023-06-26T14:36:05;7.63;;;4.90;;
69334;SDS011;56477;52.742;15.242;2023-06-26T14:38:32;6.30;;;4.97;;
69334;SDS011;56477;52.742;15.242;2023-06-26T14:40:58;5.82;;;5.00;;
69334;SDS011;56477;52.742;15.242;2023-06-26T14:43:24;6.60;;;4.95;;
69334;SDS011;56477;52.742;15.242;2023-06-26T14:45:50;5.65;;;4.57;;
69334;SDS011;56477;52.742;15.242;2023-06-26T14:48:16;6.80;;;4.70;;
69334;SDS011;56477;52.742;15.242;2023-06-26T14:50:42;7.07;;;5.10;;
69334;SDS011;56477;52.742;15.242;2023-06-26T14:53:08;5.70;;;4.78;;